createdAt,value
2019-03-18T00:29:50.288Z,1002.74
2019-03-18T00:30:50.280Z,1002.81
2019-03-18T01:11:11.241Z,1002.85
2019-03-18T01:12:11.234Z,1002.84
2019-03-18T01:13:11.217Z,1002.85
2019-03-18T01:14:11.207Z,1002.83
2019-03-18T01:15:11.194Z,1002.92
2019-03-18T01:16:11.186Z,1002.87
2019-03-18T01:17:11.175Z,1002.80
2019-03-18T01:18:11.168Z,1002.80
2019-03-18T01:19:11.169Z,1002.81
2019-03-18T01:39:06.189Z,1002.81
2019-03-18T01:40:06.165Z,1002.81
2019-03-18T01:41:06.150Z,1002.84
2019-03-18T01:42:06.142Z,1002.83
2019-03-18T01:43:06.136Z,1002.86
2019-03-18T02:58:50.691Z,1003.40
2019-03-18T02:59:50.693Z,1003.38
2019-03-18T03:00:50.671Z,1003.43
2019-03-18T03:01:50.664Z,1003.42
2019-03-18T03:02:50.657Z,1003.39
2019-03-18T03:03:50.644Z,1003.39
2019-03-18T03:05:33.037Z,1003.35
2019-03-18T03:06:33.030Z,1003.38
2019-03-18T03:07:33.020Z,1003.46
2019-03-18T03:08:33.009Z,1003.48
2019-03-18T03:09:32.999Z,1003.48
2019-03-18T03:10:32.992Z,1003.53
2019-03-18T03:11:34.516Z,1003.51
2019-03-18T03:12:32.970Z,1003.50
2019-03-18T03:13:32.956Z,1003.52
2019-03-18T03:14:33.149Z,1003.56
2019-03-18T03:15:33.136Z,1003.55
2019-03-18T03:16:32.931Z,1003.56
2019-03-18T03:17:32.913Z,1003.62
2019-03-18T04:25:39.379Z,1004.18
2019-03-18T04:26:39.387Z,1004.23
2019-03-18T04:27:39.360Z,1004.24
2019-03-18T04:28:39.360Z,1004.19
2019-03-18T04:29:39.342Z,1004.27
2019-03-18T04:30:39.328Z,1004.27
2019-03-18T04:31:39.322Z,1004.25
2019-03-18T04:32:39.329Z,1004.33
2019-03-18T04:33:39.563Z,1004.36
2019-03-18T04:34:39.289Z,1004.39
2019-03-18T04:37:11.806Z,1004.44
2019-03-18T04:42:20.701Z,1004.55
2019-03-18T04:43:20.693Z,1004.67
2019-03-18T04:44:20.680Z,1004.58
2019-03-18T04:45:20.680Z,1004.58
2019-03-18T04:46:20.664Z,1004.65
2019-03-18T04:47:20.674Z,1004.58
2019-03-18T04:48:20.641Z,1004.64
2019-03-18T04:49:20.634Z,1004.65
2019-03-18T04:54:39.694Z,1004.64
2019-03-18T04:55:39.687Z,1004.64
2019-03-18T04:56:39.675Z,1004.70
2019-03-18T04:57:39.672Z,1004.67
2019-03-18T04:58:39.655Z,1004.70
2019-03-18T05:34:14.099Z,1004.88
2019-03-18T05:35:14.087Z,1004.95
2019-03-18T05:36:14.077Z,1004.94
2019-03-18T05:37:14.070Z,1004.99
2019-03-18T05:38:14.058Z,1004.99
2019-03-18T05:39:14.051Z,1005.01
2019-03-18T05:40:14.035Z,1005.04
2019-03-18T05:41:14.027Z,1005.03
2019-03-18T05:42:14.014Z,1005.07
2019-03-18T05:43:14.007Z,1005.11
2019-03-18T05:44:13.994Z,1005.16
2019-03-18T05:45:13.986Z,1005.18
2019-03-18T05:46:13.973Z,1005.24
2019-03-18T05:47:13.966Z,1005.21
2019-03-18T05:48:13.953Z,1005.26
2019-03-18T05:49:13.949Z,1005.29
2019-03-18T05:50:13.936Z,1005.28
2019-03-18T05:51:13.926Z,1005.30
2019-03-18T05:52:13.913Z,1005.32
2019-03-18T05:53:13.907Z,1005.37
2019-03-18T05:54:13.974Z,1005.39
2019-03-18T05:55:13.886Z,1005.37
2019-03-18T05:56:13.873Z,1005.39
2019-03-18T05:57:13.865Z,1005.40
2019-03-18T05:58:13.856Z,1005.47
2019-03-18T05:59:13.847Z,1005.43
2019-03-18T06:00:13.844Z,1005.51
2019-03-18T06:01:13.828Z,1005.46
2019-03-18T06:02:13.813Z,1005.52
2019-03-18T06:03:13.805Z,1005.50
2019-03-18T06:04:13.793Z,1005.51
2019-03-18T06:05:13.785Z,1005.53
2019-03-18T06:06:13.773Z,1005.53
2019-03-18T06:07:13.767Z,1005.56
2019-03-18T06:08:13.754Z,1005.56
2019-03-18T06:09:13.902Z,1005.60
2019-03-18T06:10:13.734Z,1005.57
2019-03-18T06:11:13.730Z,1005.59
2019-03-18T06:12:13.714Z,1005.62
2019-03-18T06:13:13.707Z,1005.64
2019-03-18T06:14:13.696Z,1005.67
2019-03-18T06:15:13.693Z,1005.68
2019-03-18T06:16:13.679Z,1005.68
2019-03-18T06:17:13.668Z,1005.79
2019-03-18T06:18:13.656Z,1005.80
2019-03-18T06:19:13.649Z,1005.80
2019-03-18T06:20:13.637Z,1005.87
2019-03-18T06:21:13.630Z,1005.79
2019-03-18T06:22:13.621Z,1005.85
2019-03-18T06:23:13.611Z,1005.90
2019-03-18T06:24:13.598Z,1005.87
2019-03-18T06:25:13.600Z,1005.89
2019-03-18T06:26:13.582Z,1005.92
2019-03-18T06:27:13.584Z,1005.94
2019-03-18T06:28:13.861Z,1005.92
2019-03-18T06:29:13.553Z,1005.89
2019-03-18T06:30:13.542Z,1005.93
2019-03-18T06:31:13.536Z,1005.96
2019-03-18T06:32:13.523Z,1005.96
2019-03-18T06:34:13.525Z,1005.99
2019-03-18T06:35:13.497Z,1006.01
2019-03-18T06:36:13.487Z,1006.11
2019-03-18T06:37:13.476Z,1006.10
2019-03-18T06:38:13.469Z,1006.08
2019-03-18T06:39:13.466Z,1006.10
2019-03-18T06:40:13.451Z,1006.11
2019-03-18T06:41:13.439Z,1006.14
2019-03-18T06:42:13.432Z,1006.14
2019-03-18T06:43:13.421Z,1006.16
2019-03-18T06:44:13.415Z,1006.12
2019-03-18T06:46:13.394Z,1006.19
2019-03-18T06:47:13.387Z,1006.22
2019-03-18T06:48:13.395Z,1006.21
2019-03-18T06:49:13.368Z,1006.25
2019-03-18T06:50:13.400Z,1006.29
2019-03-18T06:51:13.350Z,1006.30
2019-03-18T06:52:13.338Z,1006.37
2019-03-18T06:54:13.325Z,1006.32
2019-03-18T06:55:13.316Z,1006.37
2019-03-18T06:56:13.307Z,1006.41
2019-03-18T06:57:13.295Z,1006.41
2019-03-18T06:58:13.288Z,1006.38
2019-03-18T06:59:13.276Z,1006.48
2019-03-18T07:00:13.270Z,1006.44
2019-03-18T07:01:13.260Z,1006.55
2019-03-18T07:02:13.316Z,1006.46
2019-03-18T07:03:13.242Z,1006.43
2019-03-18T07:04:13.237Z,1006.55
2019-03-18T07:05:13.229Z,1006.55
2019-03-18T07:06:13.217Z,1006.53
2019-03-18T07:07:13.207Z,1006.52
2019-03-18T07:08:13.202Z,1006.56
2019-03-18T07:09:13.189Z,1006.59
2019-03-18T07:10:13.183Z,1006.57
2019-03-18T08:06:06.122Z,1007.52
2019-03-18T08:07:06.116Z,1007.45
2019-03-18T12:24:11.711Z,1010.03
2019-03-18T12:25:11.724Z,1010.08
2019-03-18T12:26:11.702Z,1010.09
2019-03-18T12:27:12.306Z,1010.07
2019-03-18T12:28:11.691Z,1010.03
2019-03-18T13:10:26.951Z,1010.12
2019-03-18T13:11:26.993Z,1010.16
2019-03-18T13:12:26.948Z,1010.16
2019-03-18T13:13:26.951Z,1010.16
2019-03-18T13:14:26.949Z,1010.16
2019-03-18T13:15:26.953Z,1010.17
2019-03-18T13:16:26.948Z,1010.12
2019-03-18T13:17:26.955Z,1010.13
2019-03-18T13:18:26.952Z,1010.17
2019-03-18T13:19:26.953Z,1010.13
2019-03-18T13:20:26.952Z,1010.24
2019-03-18T13:21:26.957Z,1010.24
2019-03-18T13:23:17.001Z,1010.33
2019-03-18T13:24:14.381Z,1010.25
2019-03-18T13:25:14.383Z,1010.38
2019-03-18T13:30:53.414Z,1010.31
2019-03-18T13:31:53.416Z,1010.37
2019-03-18T13:32:53.418Z,1010.27
2019-03-18T13:33:53.412Z,1010.22
2019-03-18T13:34:53.407Z,1010.34
2019-03-18T13:35:53.408Z,1010.27
2019-03-18T13:48:34.181Z,1010.32
2019-03-18T13:49:30.547Z,1010.31
2019-03-18T13:50:30.545Z,1010.27
2019-03-18T13:51:30.542Z,1010.33
2019-03-18T13:52:30.539Z,1010.34
2019-03-18T13:53:30.538Z,1010.33
2019-03-18T13:54:32.359Z,1010.32
2019-03-18T13:55:30.534Z,1010.32
2019-03-18T13:56:30.530Z,1010.33
2019-03-18T13:57:30.530Z,1010.38
2019-03-18T13:58:30.541Z,1010.36
2019-03-18T13:59:30.532Z,1010.33
2019-03-18T14:00:31.338Z,1010.37
2019-03-18T14:01:30.524Z,1010.33
2019-03-18T14:02:30.523Z,1010.40
2019-03-18T14:03:30.537Z,1010.42
2019-03-18T14:04:30.527Z,1010.37
2019-03-18T14:05:30.538Z,1010.34
2019-03-18T14:06:30.517Z,1010.37
2019-03-18T14:07:30.518Z,1010.43
2019-03-18T14:08:30.515Z,1010.43
2019-03-18T14:09:30.516Z,1010.44
2019-03-18T14:10:30.515Z,1010.49
2019-03-18T14:11:30.515Z,1010.58
2019-03-18T14:12:30.511Z,1010.60
2019-03-18T14:13:30.513Z,1010.57
2019-03-18T14:14:30.510Z,1010.63
2019-03-18T14:15:30.514Z,1010.62
2019-03-18T14:16:30.508Z,1010.62
2019-03-18T14:17:30.511Z,1010.63
2019-03-18T14:18:30.508Z,1010.74
2019-03-18T14:19:30.508Z,1010.65
2019-03-18T14:20:30.509Z,1010.55
2019-03-18T14:21:33.551Z,1010.72
2019-03-18T14:22:30.512Z,1010.73
2019-03-18T14:23:30.658Z,1010.73
2019-03-18T14:24:30.506Z,1010.69
2019-03-18T14:25:30.511Z,1010.75
2019-03-18T14:26:30.515Z,1010.79
2019-03-18T14:27:30.510Z,1010.77
2019-03-18T14:28:30.518Z,1010.81
2019-03-18T14:29:30.506Z,1010.85
2019-03-18T14:30:30.511Z,1010.85
2019-03-18T14:31:30.505Z,1010.82
2019-03-18T14:32:30.502Z,1010.93
2019-03-18T14:33:30.511Z,1010.88
2019-03-18T14:34:30.517Z,1010.87
2019-03-18T14:35:30.503Z,1010.91
2019-03-18T14:36:30.501Z,1010.89
2019-03-18T14:37:30.505Z,1010.85
2019-03-18T14:38:30.525Z,1010.85
2019-03-18T14:39:30.504Z,1010.81
2019-03-18T14:41:17.969Z,1010.91
2019-03-18T14:43:17.925Z,1010.90
2019-03-18T14:44:17.937Z,1010.78
2019-03-18T14:46:17.987Z,1010.88
2019-03-18T14:47:15.366Z,1010.84
2019-03-18T14:48:18.390Z,1010.92
2019-03-18T14:49:15.365Z,1010.88
2019-03-18T14:50:15.363Z,1010.84
2019-03-18T14:51:15.364Z,1010.91
2019-03-18T14:53:52.880Z,1010.90
2019-03-18T14:54:52.882Z,1010.82
2019-03-18T14:55:52.877Z,1010.86
2019-03-18T14:56:52.878Z,1010.86
2019-03-18T14:57:52.875Z,1010.90
2019-03-18T14:58:52.876Z,1010.98
2019-03-18T14:59:52.869Z,1011.03
2019-03-18T15:00:52.869Z,1010.91
2019-03-18T15:01:52.867Z,1011.09
2019-03-18T15:02:52.863Z,1011.00
2019-03-18T15:03:52.860Z,1011.00
2019-03-18T15:04:52.859Z,1010.97
2019-03-18T15:05:52.860Z,1011.06
2019-03-18T15:06:52.854Z,1011.05
2019-03-18T15:07:52.845Z,1011.04
2019-03-18T15:08:52.845Z,1011.05
2019-03-18T15:09:52.846Z,1011.06
2019-03-18T15:10:52.840Z,1011.10
2019-03-18T15:11:52.833Z,1011.13
2019-03-18T15:12:52.829Z,1011.06
2019-03-18T15:13:52.823Z,1011.06
2019-03-18T15:14:52.821Z,1011.10
2019-03-18T15:15:52.817Z,1011.06
2019-03-18T15:16:52.814Z,1011.06
2019-03-18T15:17:52.806Z,1011.07
2019-03-18T15:18:52.804Z,1011.09
2019-03-18T15:19:52.799Z,1011.17
2019-03-18T15:20:52.796Z,1011.06
2019-03-18T15:21:58.253Z,1011.17
2019-03-18T15:22:52.789Z,1011.14
2019-03-18T15:23:52.781Z,1011.07
2019-03-18T15:24:52.778Z,1011.18
2019-03-18T15:25:52.774Z,1011.27
2019-03-18T15:26:52.768Z,1011.23
2019-03-18T15:27:52.761Z,1011.26
2019-03-18T15:28:52.758Z,1011.26
2019-03-18T15:29:52.751Z,1011.24
2019-03-18T15:30:52.748Z,1011.27
2019-03-18T15:31:52.740Z,1011.33
2019-03-18T15:32:52.738Z,1011.27
2019-03-18T15:33:52.731Z,1011.30
2019-03-18T15:34:52.805Z,1011.28
2019-03-18T15:35:52.723Z,1011.27
2019-03-18T15:36:52.715Z,1011.34
2019-03-18T15:37:52.708Z,1011.28
2019-03-18T15:38:52.703Z,1011.34
2019-03-18T15:39:52.697Z,1011.34
2019-03-18T15:40:52.693Z,1011.38
2019-03-18T15:41:52.683Z,1011.33
2019-03-18T15:42:52.680Z,1011.38
2019-03-18T15:43:52.672Z,1011.47
2019-03-18T15:44:52.670Z,1011.49
2019-03-18T15:45:52.660Z,1011.50
2019-03-18T15:46:52.923Z,1011.54
2019-03-18T15:47:52.650Z,1011.58
2019-03-18T15:48:52.646Z,1011.62
2019-03-18T15:49:52.636Z,1011.64
2019-03-18T15:50:52.633Z,1011.75
2019-03-18T15:51:52.630Z,1011.81
2019-03-18T15:52:52.620Z,1011.84
2019-03-18T15:53:52.612Z,1011.88
2019-03-18T15:54:54.049Z,1011.87
2019-03-18T15:55:52.601Z,1011.87
2019-03-18T15:56:52.596Z,1011.91
2019-03-18T15:57:52.590Z,1011.94
2019-03-18T15:58:52.583Z,1011.91
2019-03-18T15:59:52.578Z,1011.95
2019-03-18T16:00:52.571Z,1011.89
2019-03-18T16:01:52.562Z,1011.88
2019-03-18T16:02:52.558Z,1011.92
2019-03-18T16:03:52.550Z,1011.94
2019-03-18T16:04:52.545Z,1011.95
2019-03-18T16:05:52.536Z,1011.96
2019-03-18T16:06:52.533Z,1011.98
2019-03-18T16:07:52.524Z,1011.98
2019-03-18T16:08:52.521Z,1012.05
2019-03-18T16:09:52.515Z,1012.05
2019-03-18T16:10:52.508Z,1012.08
2019-03-18T16:11:52.499Z,1012.07
2019-03-18T16:12:52.496Z,1012.13
2019-03-18T16:13:52.489Z,1012.12
2019-03-18T16:14:52.483Z,1012.12
2019-03-18T16:15:52.474Z,1012.17
2019-03-18T16:17:01.483Z,1012.15
2019-03-18T16:17:52.473Z,1012.26
2019-03-18T16:18:52.459Z,1012.26
2019-03-18T16:19:52.450Z,1012.26
2019-03-18T16:20:52.451Z,1012.27
2019-03-18T16:21:52.438Z,1012.31
2019-03-18T16:22:52.445Z,1012.30
2019-03-18T16:23:52.425Z,1012.38
2019-03-18T16:24:52.422Z,1012.39
2019-03-18T16:25:52.411Z,1012.41
2019-03-18T16:26:52.418Z,1012.37
2019-03-18T16:27:52.402Z,1012.37
2019-03-18T16:28:52.396Z,1012.37
2019-03-18T16:29:52.386Z,1012.36
2019-03-18T16:30:52.382Z,1012.41
2019-03-18T16:31:52.374Z,1012.38
2019-03-18T16:32:52.369Z,1012.34
2019-03-18T16:33:52.362Z,1012.33
2019-03-18T16:34:52.355Z,1012.33
2019-03-18T16:35:52.347Z,1012.33
2019-03-18T16:36:52.343Z,1012.35
2019-03-18T16:37:52.335Z,1012.36
2019-03-18T16:38:52.329Z,1012.33
2019-03-18T16:39:52.321Z,1012.36
2019-03-18T16:40:52.316Z,1012.31
2019-03-18T16:41:54.312Z,1012.32
2019-03-18T16:42:52.306Z,1012.36
2019-03-18T16:43:52.293Z,1012.39
2019-03-18T16:44:52.291Z,1012.29
2019-03-18T16:45:52.279Z,1012.39
2019-03-18T16:46:52.276Z,1012.39
2019-03-18T16:47:52.517Z,1012.39
2019-03-18T16:48:52.262Z,1012.37
2019-03-18T16:49:52.252Z,1012.42
2019-03-18T16:50:52.248Z,1012.39
2019-03-18T16:51:52.240Z,1012.41
2019-03-18T16:52:52.248Z,1012.45
2019-03-18T16:53:52.237Z,1012.43
2019-03-18T16:54:52.238Z,1012.44
2019-03-18T16:55:52.215Z,1012.47
2019-03-18T16:56:52.208Z,1012.45
2019-03-18T16:57:52.198Z,1012.44
2019-03-18T16:58:53.588Z,1012.51
2019-03-18T16:59:52.185Z,1012.55
2019-03-18T17:00:52.181Z,1012.54
2019-03-18T17:01:52.181Z,1012.61
2019-03-18T17:02:52.180Z,1012.67
2019-03-18T17:03:52.158Z,1012.69
2019-03-18T17:04:52.254Z,1012.67
2019-03-18T17:05:52.144Z,1012.72
2019-03-18T17:06:52.196Z,1012.75
2019-03-18T17:07:54.287Z,1012.73
2019-03-18T17:08:52.127Z,1012.76
2019-03-18T17:09:52.125Z,1012.80
2019-03-18T17:10:52.114Z,1012.81
2019-03-18T17:11:52.108Z,1012.79
2019-03-18T17:12:52.101Z,1012.86
2019-03-18T17:13:52.091Z,1012.88
2019-03-18T17:14:52.086Z,1012.91
2019-03-18T17:15:52.077Z,1012.96
2019-03-18T17:16:52.073Z,1013.04
2019-03-18T17:17:52.066Z,1013.08
2019-03-18T17:18:52.060Z,1013.08
2019-03-18T17:19:52.056Z,1013.13
2019-03-18T17:20:52.046Z,1013.23
2019-03-18T17:21:52.036Z,1013.23
2019-03-18T17:22:52.031Z,1013.33
2019-03-18T17:23:52.022Z,1013.31
2019-03-18T17:24:52.018Z,1013.32
2019-03-18T17:25:52.010Z,1013.35
2019-03-18T17:26:52.003Z,1013.35
2019-03-18T17:27:51.994Z,1013.38
2019-03-18T17:28:51.989Z,1013.27
2019-03-18T17:29:51.979Z,1013.32
2019-03-18T17:30:51.974Z,1013.26
2019-03-18T17:31:51.965Z,1013.30
2019-03-18T17:32:51.974Z,1013.22
2019-03-18T17:33:51.950Z,1013.17
2019-03-18T17:34:52.245Z,1013.18
2019-03-18T17:35:51.939Z,1013.19
2019-03-18T17:36:51.930Z,1013.20
2019-03-18T17:37:51.920Z,1013.15
2019-03-18T17:38:51.916Z,1013.17
2019-03-18T17:39:51.906Z,1013.21
2019-03-18T17:40:51.902Z,1013.23
2019-03-18T17:41:51.891Z,1013.20
2019-03-18T17:42:51.886Z,1013.27
2019-03-18T17:43:51.876Z,1013.26
2019-03-18T17:44:51.886Z,1013.28
2019-03-18T17:45:51.861Z,1013.31
2019-03-18T17:46:51.856Z,1013.31
2019-03-18T17:47:51.846Z,1013.29
2019-03-18T17:48:51.848Z,1013.32
2019-03-18T17:49:51.831Z,1013.31
2019-03-18T17:50:51.827Z,1013.33
2019-03-18T17:51:51.818Z,1013.30
2019-03-18T17:53:01.453Z,1013.31
2019-03-18T17:53:51.800Z,1013.34
2019-03-18T17:54:51.798Z,1013.32
2019-03-18T17:55:51.786Z,1013.34
2019-03-18T17:56:51.780Z,1013.34
2019-03-18T17:57:51.776Z,1013.25
2019-03-18T17:58:51.764Z,1013.34
2019-03-18T17:59:51.756Z,1013.32
2019-03-18T18:00:51.750Z,1013.38
2019-03-18T18:01:51.747Z,1013.39
2019-03-18T18:02:52.849Z,1013.45
2019-03-18T18:03:51.724Z,1013.47
2019-03-18T18:05:02.293Z,1013.51
2019-03-18T18:05:51.731Z,1013.46
2019-03-18T18:06:51.703Z,1013.50
2019-03-18T18:07:51.693Z,1013.50
2019-03-18T18:08:51.695Z,1013.49
2019-03-18T18:09:51.977Z,1013.53
2019-03-18T18:10:51.672Z,1013.52
2019-03-18T18:11:51.663Z,1013.53
2019-03-18T18:12:51.657Z,1013.52
2019-03-18T18:13:51.646Z,1013.52
2019-03-18T18:14:51.640Z,1013.53
2019-03-18T18:15:51.732Z,1013.56
2019-03-18T18:16:51.625Z,1013.57
2019-03-18T18:17:51.626Z,1013.61
2019-03-18T18:18:51.611Z,1013.67
2019-03-18T18:19:51.599Z,1013.64
2019-03-18T18:20:51.594Z,1013.70
2019-03-18T18:21:51.583Z,1013.68
2019-03-18T18:22:51.578Z,1013.71
2019-03-18T18:23:51.567Z,1013.71
2019-03-18T18:24:51.562Z,1013.75
2019-03-18T18:25:51.551Z,1013.78
2019-03-18T18:26:51.545Z,1013.77
2019-03-18T18:27:51.536Z,1013.77
2019-03-18T18:28:51.530Z,1013.80
2019-03-18T18:29:51.519Z,1013.84
2019-03-18T18:30:51.536Z,1013.87
2019-03-18T18:31:51.504Z,1013.87
2019-03-18T18:32:51.498Z,1013.90
2019-03-18T18:33:51.487Z,1013.90
2019-03-18T18:34:51.482Z,1013.89
2019-03-18T18:35:51.472Z,1013.91
2019-03-18T18:36:51.471Z,1013.91
2019-03-18T18:37:51.455Z,1013.91
2019-03-18T18:38:51.449Z,1013.94
2019-03-18T18:39:51.740Z,1013.93
2019-03-18T18:40:51.435Z,1013.90
2019-03-18T18:41:51.424Z,1013.94
2019-03-18T18:42:51.418Z,1013.92
2019-03-18T18:43:51.407Z,1013.94
2019-03-18T18:44:51.401Z,1013.93
2019-03-18T18:45:51.390Z,1013.95
2019-03-18T18:46:51.389Z,1013.98
2019-03-18T18:47:51.375Z,1014.00
2019-03-18T18:48:51.372Z,1014.04
2019-03-18T18:49:51.360Z,1014.02
2019-03-18T18:50:51.365Z,1014.06
2019-03-18T18:51:51.342Z,1014.15
2019-03-18T18:52:51.343Z,1014.16
2019-03-18T18:53:51.326Z,1014.16
2019-03-18T18:54:51.325Z,1014.20
2019-03-18T18:55:51.309Z,1014.21
2019-03-18T18:56:51.318Z,1014.19
2019-03-18T18:57:51.307Z,1014.21
2019-03-18T18:58:51.287Z,1014.22
2019-03-18T18:59:51.277Z,1014.22
2019-03-18T19:00:51.270Z,1014.16
2019-03-18T19:01:51.264Z,1014.23
2019-03-18T19:02:51.253Z,1014.20
2019-03-18T19:03:51.242Z,1014.20
2019-03-18T19:04:51.237Z,1014.22
2019-03-18T19:05:51.225Z,1014.17
2019-03-18T19:06:51.226Z,1014.21
2019-03-18T19:07:51.209Z,1014.20
2019-03-18T19:08:51.202Z,1014.21
2019-03-18T19:09:51.494Z,1014.26
2019-03-18T19:10:51.184Z,1014.26
2019-03-18T19:11:51.179Z,1014.29
2019-03-18T19:12:51.167Z,1014.32
2019-03-18T19:13:51.161Z,1014.31
2019-03-18T19:14:51.150Z,1014.32
2019-03-18T19:15:51.144Z,1014.34
2019-03-18T19:16:51.183Z,1014.35
2019-03-18T19:17:51.128Z,1014.39
2019-03-18T19:18:51.131Z,1014.37
2019-03-18T19:19:51.111Z,1014.36
2019-03-18T19:20:51.102Z,1014.31
2019-03-18T19:21:51.095Z,1014.30
2019-03-18T19:22:51.084Z,1014.32
2019-03-18T19:23:51.080Z,1014.32
2019-03-18T19:24:51.067Z,1014.33
2019-03-18T19:25:51.061Z,1014.30
2019-03-18T19:26:51.051Z,1014.35
2019-03-18T19:27:51.044Z,1014.38
2019-03-18T19:28:51.034Z,1014.37
2019-03-18T19:29:51.027Z,1014.41
2019-03-18T19:30:51.018Z,1014.38
2019-03-18T19:31:51.010Z,1014.39
2019-03-18T19:32:51.000Z,1014.40
2019-03-18T19:33:50.996Z,1014.41
2019-03-18T19:34:50.983Z,1014.47
2019-03-18T19:35:50.984Z,1014.44
2019-03-18T19:36:50.966Z,1014.47
2019-03-18T19:37:50.962Z,1014.46
2019-03-18T19:38:50.949Z,1014.51
2019-03-18T19:39:50.947Z,1014.50
2019-03-18T19:40:51.233Z,1014.56
2019-03-18T19:41:50.926Z,1014.55
2019-03-18T19:42:50.916Z,1014.57
2019-03-18T19:43:50.909Z,1014.67
2019-03-18T19:44:50.902Z,1014.63
2019-03-18T19:45:50.892Z,1014.66
2019-03-18T19:46:50.882Z,1014.68
2019-03-18T19:47:53.029Z,1014.70
2019-03-18T19:48:50.867Z,1014.71
2019-03-18T19:49:50.860Z,1014.72
2019-03-18T19:50:50.848Z,1014.76
2019-03-18T19:51:50.842Z,1014.76
2019-03-18T19:52:50.831Z,1014.75
2019-03-18T19:53:50.824Z,1014.76
2019-03-18T19:54:50.814Z,1014.78
2019-03-18T19:55:50.812Z,1014.82
2019-03-18T19:56:50.798Z,1014.81
2019-03-18T19:57:50.790Z,1014.82
2019-03-18T19:58:50.780Z,1014.81
2019-03-18T19:59:50.779Z,1014.83
2019-03-18T20:00:50.765Z,1014.86
2019-03-18T20:01:50.757Z,1014.88
2019-03-18T20:02:50.746Z,1014.88
2019-03-18T20:03:50.742Z,1014.90
2019-03-18T20:04:50.730Z,1014.92
2019-03-18T20:05:50.722Z,1014.90
2019-03-18T20:06:50.712Z,1014.94
2019-03-18T20:07:50.707Z,1014.92
2019-03-18T20:08:50.696Z,1014.95
2019-03-18T20:09:50.693Z,1014.96
2019-03-18T20:10:50.678Z,1014.98
2019-03-18T20:11:50.673Z,1015.05
2019-03-18T20:12:50.663Z,1015.08
2019-03-18T20:13:50.664Z,1015.09
2019-03-18T20:14:50.645Z,1015.12
2019-03-18T20:15:50.640Z,1015.12
2019-03-18T20:16:50.629Z,1015.17
2019-03-18T20:17:50.622Z,1015.10
2019-03-18T20:18:50.613Z,1015.09
2019-03-18T20:19:50.616Z,1015.11
2019-03-18T20:20:50.613Z,1015.15
2019-03-18T20:21:50.588Z,1015.10
2019-03-18T20:22:50.581Z,1015.16
2019-03-18T20:24:00.423Z,1015.20
2019-03-18T20:24:50.562Z,1015.18
2019-03-18T20:25:50.554Z,1015.20
2019-03-18T20:26:50.544Z,1015.23
2019-03-18T20:27:50.538Z,1015.22
2019-03-18T20:28:50.528Z,1015.23
2019-03-18T20:29:50.526Z,1015.26
2019-03-18T20:30:50.511Z,1015.27
2019-03-18T20:31:50.504Z,1015.30
2019-03-18T20:32:50.507Z,1015.33
2019-03-18T20:33:50.488Z,1015.35
2019-03-18T20:34:50.479Z,1015.35
2019-03-18T20:35:50.482Z,1015.37
2019-03-18T20:36:50.462Z,1015.40
2019-03-18T20:37:51.957Z,1015.40
2019-03-18T20:38:50.443Z,1015.41
2019-03-18T20:39:50.438Z,1015.45
2019-03-18T20:40:50.433Z,1015.47
2019-03-18T20:41:50.428Z,1015.41
2019-03-18T20:42:50.427Z,1015.45
2019-03-18T20:43:50.404Z,1015.47
2019-03-18T20:44:50.394Z,1015.44
2019-03-18T20:45:50.689Z,1015.47
2019-03-18T20:46:50.376Z,1015.45
2019-03-18T20:47:50.370Z,1015.47
2019-03-18T20:48:50.359Z,1015.43
2019-03-18T20:49:50.352Z,1015.51
2019-03-18T20:50:50.342Z,1015.50
2019-03-18T20:51:50.340Z,1015.48
2019-03-18T20:52:50.326Z,1015.51
2019-03-18T20:53:50.331Z,1015.52
2019-03-18T20:54:50.308Z,1015.49
2019-03-18T20:55:50.306Z,1015.55
2019-03-18T20:56:50.292Z,1015.52
2019-03-18T20:57:50.285Z,1015.57
2019-03-18T20:58:50.278Z,1015.62
2019-03-18T20:59:50.268Z,1015.62
2019-03-18T21:00:52.883Z,1015.62
2019-03-18T21:01:50.251Z,1015.66
2019-03-18T21:02:50.241Z,1015.65
2019-03-18T21:03:50.235Z,1015.75
2019-03-18T21:04:50.223Z,1015.76
2019-03-18T21:05:50.218Z,1015.76
2019-03-18T21:06:50.206Z,1015.75
2019-03-18T21:07:50.201Z,1015.76
2019-03-18T21:08:50.189Z,1015.76
2019-03-18T21:09:50.181Z,1015.76
2019-03-18T21:10:50.173Z,1015.78
2019-03-18T21:11:50.164Z,1015.82
2019-03-18T21:12:50.153Z,1015.81
2019-03-18T21:13:56.979Z,1015.81
2019-03-18T21:14:50.136Z,1015.81
2019-03-18T21:15:50.433Z,1015.86
2019-03-18T21:16:50.120Z,1015.90
2019-03-18T21:17:50.112Z,1015.91
2019-03-18T21:18:50.102Z,1015.90
2019-03-18T21:19:50.094Z,1015.95
2019-03-18T21:20:50.093Z,1015.93
2019-03-18T21:21:50.080Z,1015.98
2019-03-18T21:22:50.072Z,1015.96
2019-03-18T21:23:50.058Z,1015.97
2019-03-18T21:24:50.048Z,1015.97
2019-03-18T21:25:50.040Z,1016.02
2019-03-18T21:26:50.030Z,1015.99
2019-03-18T21:27:50.022Z,1016.05
2019-03-18T21:28:50.013Z,1015.97
2019-03-18T21:29:50.005Z,1016.03
2019-03-18T21:30:49.993Z,1016.01
2019-03-18T21:31:49.987Z,1016.01
2019-03-18T21:32:49.994Z,1016.01
2019-03-18T21:33:49.972Z,1016.01
2019-03-18T21:34:49.969Z,1016.00
2019-03-18T21:35:49.951Z,1016.05
2019-03-18T21:36:49.941Z,1016.05
2019-03-18T21:37:49.934Z,1016.06
2019-03-18T21:38:49.923Z,1016.12
2019-03-18T21:39:49.921Z,1016.17
2019-03-18T21:40:49.906Z,1016.17
2019-03-18T21:41:49.897Z,1016.17
2019-03-18T21:42:49.889Z,1016.19
2019-03-18T21:43:49.880Z,1016.22
2019-03-18T21:44:49.869Z,1016.22
2019-03-18T21:45:49.861Z,1016.22
2019-03-18T21:46:50.151Z,1016.23
2019-03-18T21:47:49.852Z,1016.19
2019-03-18T21:48:49.834Z,1016.20
2019-03-18T21:49:49.825Z,1016.16
2019-03-18T21:50:49.814Z,1016.15
2019-03-18T21:51:49.809Z,1016.11
2019-03-18T21:52:49.801Z,1016.13
2019-03-18T21:53:49.791Z,1016.15
2019-03-18T21:54:49.778Z,1016.16
2019-03-18T21:55:49.771Z,1016.20
2019-03-18T21:56:49.761Z,1016.18
2019-03-18T21:57:49.808Z,1016.28
2019-03-18T21:58:49.742Z,1016.28
2019-03-18T21:59:49.735Z,1016.25
2019-03-18T22:00:49.724Z,1016.28
2019-03-18T22:01:49.717Z,1016.27
2019-03-18T22:02:49.707Z,1016.29
2019-03-18T22:03:49.699Z,1016.27
2019-03-18T22:04:49.692Z,1016.28
2019-03-18T22:05:49.679Z,1016.23
2019-03-18T22:06:49.668Z,1016.23
2019-03-18T22:07:49.661Z,1016.24
2019-03-18T22:08:49.650Z,1016.22
2019-03-18T22:09:49.644Z,1016.23
2019-03-18T22:10:49.632Z,1016.24
2019-03-18T22:11:49.625Z,1016.19
2019-03-18T22:12:49.613Z,1016.22
2019-03-18T22:13:49.606Z,1016.27
2019-03-18T22:14:49.594Z,1016.28
2019-03-18T22:15:49.597Z,1016.28
2019-03-18T22:16:49.577Z,1016.27
2019-03-18T22:17:49.568Z,1016.33
2019-03-18T22:18:49.558Z,1016.32
2019-03-18T22:19:49.552Z,1016.32
2019-03-18T22:20:49.541Z,1016.29
2019-03-18T22:21:49.834Z,1016.33
2019-03-18T22:22:49.522Z,1016.35
2019-03-18T22:23:49.516Z,1016.38
2019-03-18T22:24:50.143Z,1016.35
2019-03-18T22:25:49.502Z,1016.40
2019-03-18T22:26:49.487Z,1016.39
2019-03-18T22:27:49.629Z,1016.40
2019-03-18T22:28:49.467Z,1016.39
2019-03-18T22:29:49.458Z,1016.45
2019-03-18T22:30:49.446Z,1016.41
2019-03-18T22:31:49.439Z,1016.42
2019-03-18T22:32:49.435Z,1016.37
2019-03-18T22:33:49.420Z,1016.44
2019-03-18T22:34:49.408Z,1016.42
2019-03-18T22:35:49.401Z,1016.41
2019-03-18T22:36:49.392Z,1016.37
2019-03-18T22:37:49.382Z,1016.42
2019-03-18T22:38:49.377Z,1016.43
2019-03-18T22:39:49.363Z,1016.48
2019-03-18T22:40:49.352Z,1016.48
2019-03-18T22:41:49.345Z,1016.54
2019-03-18T22:42:49.332Z,1016.55
2019-03-18T22:43:49.329Z,1016.53
2019-03-18T22:44:49.314Z,1016.59
2019-03-18T22:45:49.308Z,1016.60
2019-03-18T22:46:49.294Z,1016.53
2019-03-18T22:47:49.287Z,1016.55
2019-03-18T22:48:49.275Z,1016.55
2019-03-18T22:49:49.267Z,1016.51
2019-03-18T22:50:49.255Z,1016.52
2019-03-18T22:51:49.550Z,1016.52
2019-03-18T22:52:49.245Z,1016.52
2019-03-18T22:53:49.228Z,1016.52
2019-03-18T22:54:55.896Z,1016.53
2019-03-18T22:55:49.221Z,1016.59
2019-03-18T22:56:49.197Z,1016.60